createdAt,value
2022-11-29T00:02:21.770Z,2.84
2022-11-29T00:05:36.545Z,2.94
2022-11-29T00:08:52.577Z,2.84
2022-11-29T00:12:01.216Z,2.94
2022-11-29T00:15:15.553Z,2.93
2022-11-29T00:18:17.353Z,3.02
2022-11-29T00:21:32.637Z,2.99
2022-11-29T00:24:34.415Z,2.93
2022-11-29T00:27:49.550Z,2.99
2022-11-29T00:30:51.486Z,2.95
2022-11-29T00:34:08.578Z,3.00
2022-11-29T00:37:16.582Z,2.84
2022-11-29T00:40:25.202Z,2.90
2022-11-29T00:43:33.569Z,2.87
2022-11-29T00:46:48.584Z,2.82
2022-11-29T00:49:57.246Z,2.73
2022-11-29T00:53:05.597Z,2.80
2022-11-29T00:56:20.588Z,2.86
2022-11-29T00:59:29.594Z,2.90
2022-11-29T01:02:38.257Z,2.97
2022-11-29T01:05:46.615Z,2.79
2022-11-29T01:08:55.317Z,2.83
2022-11-29T01:12:03.595Z,2.76
2022-11-29T01:15:13.906Z,2.80
2022-11-29T01:18:22.590Z,2.81
2022-11-29T01:21:44.574Z,2.80
2022-11-29T01:24:52.554Z,2.79
2022-11-29T01:28:01.234Z,2.80
2022-11-29T01:31:19.587Z,2.85
2022-11-29T01:34:34.682Z,2.81
2022-11-29T01:37:49.598Z,2.78
2022-11-29T01:41:02.892Z,2.76
2022-11-29T01:44:51.613Z,2.76
2022-11-29T01:48:07.584Z,2.78
2022-11-29T01:51:09.437Z,2.77
2022-11-29T01:54:26.579Z,2.72
2022-11-29T01:57:35.587Z,2.62
2022-11-29T02:00:51.571Z,2.66
2022-11-29T02:03:53.886Z,2.68
2022-11-29T02:07:09.709Z,2.58
2022-11-29T02:10:18.579Z,2.58
2022-11-29T02:14:07.193Z,2.53
2022-11-29T02:17:44.641Z,2.56
2022-11-29T02:21:22.611Z,2.59
2022-11-29T02:24:52.637Z,2.61
2022-11-29T02:28:39.640Z,2.59
2022-11-29T02:32:14.611Z,2.51
2022-11-29T02:35:49.632Z,2.53
2022-11-29T02:39:18.722Z,2.51
2022-11-29T02:42:56.180Z,2.53
2022-11-29T02:46:20.632Z,2.58
2022-11-29T02:49:55.590Z,2.58
2022-11-29T02:53:17.061Z,2.54
2022-11-29T02:56:50.610Z,2.57
2022-11-29T03:00:09.630Z,2.61
2022-11-29T03:03:27.349Z,2.54
2022-11-29T03:06:57.609Z,2.51
2022-11-29T03:10:28.361Z,2.55
2022-11-29T03:13:56.631Z,2.55
2022-11-29T03:17:23.626Z,2.57
2022-11-29T03:20:44.615Z,2.60
2022-11-29T03:23:57.263Z,2.54
2022-11-29T03:27:18.662Z,2.58
2022-11-29T03:30:20.870Z,2.62
2022-11-29T03:34:03.667Z,2.60
2022-11-29T03:37:22.613Z,2.62
2022-11-29T03:40:42.258Z,2.61
2022-11-29T03:44:09.630Z,2.65
2022-11-29T03:47:32.681Z,2.73
2022-11-29T03:50:46.629Z,2.78
2022-11-29T03:54:03.552Z,2.84
2022-11-29T03:57:24.641Z,2.84
2022-11-29T04:00:40.642Z,2.82
2022-11-29T04:04:17.595Z,2.84
2022-11-29T04:07:39.435Z,2.82
2022-11-29T04:11:13.779Z,2.91
2022-11-29T04:14:30.804Z,2.87
2022-11-29T04:18:15.605Z,2.90
2022-11-29T04:22:00.686Z,2.95
2022-11-29T04:25:32.654Z,2.96
2022-11-29T04:29:17.703Z,3.00
2022-11-29T04:32:43.427Z,2.96
2022-11-29T04:36:18.626Z,2.92
2022-11-29T04:39:48.705Z,2.85
2022-11-29T04:43:22.678Z,2.94
2022-11-29T04:47:00.639Z,3.03
2022-11-29T04:50:32.322Z,3.06
2022-11-29T04:54:04.702Z,2.99
2022-11-29T04:57:17.797Z,2.99
2022-11-29T05:00:32.651Z,2.88
2022-11-29T05:03:55.446Z,2.86
2022-11-29T05:07:26.943Z,2.82
2022-11-29T05:10:58.713Z,2.77
2022-11-29T05:14:23.438Z,2.67
2022-11-29T05:17:42.657Z,2.70
2022-11-29T05:21:18.062Z,2.77
2022-11-29T05:24:53.711Z,2.75
2022-11-29T05:28:15.438Z,2.65
2022-11-29T05:35:08.714Z,2.51
2022-11-29T05:38:50.733Z,2.50
2022-11-29T05:42:18.684Z,2.50
2022-11-29T05:45:34.977Z,2.56
2022-11-29T05:49:07.711Z,2.58
2022-11-29T05:52:38.729Z,2.61
2022-11-29T05:56:03.717Z,2.53
2022-11-29T05:59:20.752Z,2.61
2022-11-29T06:02:58.825Z,2.56
2022-11-29T06:06:06.974Z,2.62
2022-11-29T06:09:35.774Z,2.56
2022-11-29T06:12:59.722Z,2.59
2022-11-29T06:16:29.825Z,2.52
2022-11-29T06:20:01.886Z,2.53
2022-11-29T06:23:30.717Z,2.63
2022-11-29T06:27:04.851Z,2.65
2022-11-29T06:30:19.746Z,2.69
2022-11-29T06:33:50.673Z,2.65
2022-11-29T06:37:07.163Z,2.66
2022-11-29T06:40:23.822Z,2.67
2022-11-29T06:43:26.233Z,2.73
2022-11-29T06:46:53.763Z,2.70
2022-11-29T06:50:38.834Z,2.72
2022-11-29T06:53:51.681Z,2.78
2022-11-29T06:57:23.722Z,2.75
2022-11-29T07:00:34.779Z,2.79
2022-11-29T07:04:23.130Z,2.74
2022-11-29T07:07:40.802Z,2.85
2022-11-29T07:10:43.820Z,2.88
2022-11-29T07:14:00.744Z,2.88
2022-11-29T07:17:46.720Z,2.87
2022-11-29T07:21:27.722Z,2.89
2022-11-29T07:25:04.906Z,2.97
2022-11-29T07:28:32.868Z,3.03
2022-11-29T07:32:08.831Z,3.08
2022-11-29T07:35:39.743Z,3.14
2022-11-29T07:39:03.880Z,3.11
2022-11-29T07:42:33.051Z,3.13
2022-11-29T07:45:35.702Z,3.09
2022-11-29T07:48:58.502Z,3.09
2022-11-29T07:52:16.758Z,3.07
2022-11-29T07:55:21.327Z,2.99
2022-11-29T07:58:35.808Z,3.10
2022-11-29T08:01:37.666Z,3.10
2022-11-29T08:04:52.718Z,3.07
2022-11-29T08:07:54.503Z,3.15
2022-11-29T08:11:16.699Z,3.19
2022-11-29T08:14:18.539Z,3.15
2022-11-29T08:17:34.779Z,3.13
2022-11-29T08:20:44.326Z,3.13
2022-11-29T08:23:59.703Z,2.96
2022-11-29T08:27:07.840Z,3.00
2022-11-29T08:30:22.727Z,3.09
2022-11-29T08:33:30.766Z,3.11
2022-11-29T08:36:39.290Z,3.09
2022-11-29T08:39:47.790Z,2.95
2022-11-29T08:43:04.801Z,2.95
2022-11-29T08:46:06.845Z,3.00
2022-11-29T08:49:21.825Z,3.01
2022-11-29T08:52:33.874Z,3.18
2022-11-29T08:55:44.798Z,3.21
2022-11-29T08:58:53.377Z,3.17
2022-11-29T09:02:01.848Z,3.19
2022-11-29T09:05:13.118Z,3.29
2022-11-29T09:08:21.794Z,3.29
2022-11-29T09:11:39.734Z,3.30
2022-11-29T09:14:41.589Z,3.24
2022-11-29T09:17:56.854Z,3.14
2022-11-29T09:21:08.050Z,3.28
2022-11-29T09:24:22.718Z,3.38
2022-11-29T09:27:37.842Z,3.41
2022-11-29T09:30:46.703Z,3.54
2022-11-29T09:33:58.276Z,3.51
2022-11-29T09:37:12.835Z,3.57
2022-11-29T09:40:27.573Z,3.59
2022-11-29T09:44:05.738Z,3.67
2022-11-29T09:47:37.746Z,3.58
2022-11-29T09:50:48.348Z,3.65
2022-11-29T09:54:23.778Z,3.69
2022-11-29T09:57:39.810Z,3.80
2022-11-29T10:00:49.628Z,3.93
2022-11-29T10:04:09.758Z,4.17
2022-11-29T10:07:25.832Z,4.25
2022-11-29T10:10:50.842Z,4.21
2022-11-29T10:14:05.781Z,4.24
2022-11-29T10:17:33.482Z,4.20
2022-11-29T10:20:52.130Z,4.31
2022-11-29T10:24:17.844Z,4.13
2022-11-29T10:27:28.793Z,4.12
2022-11-29T10:30:39.007Z,4.08
2022-11-29T10:33:56.930Z,4.01
2022-11-29T10:37:06.837Z,4.04
2022-11-29T10:40:23.477Z,4.00
2022-11-29T10:43:38.826Z,4.03
2022-11-29T10:46:47.818Z,4.15
2022-11-29T10:50:03.985Z,3.92
2022-11-29T10:53:11.483Z,4.10
2022-11-29T10:56:30.844Z,4.20
2022-11-29T10:59:38.867Z,4.08
2022-11-29T11:02:47.819Z,3.95
2022-11-29T11:06:07.858Z,3.98
2022-11-29T11:09:34.845Z,4.12
2022-11-29T11:13:01.751Z,4.14
2022-11-29T11:16:22.876Z,4.16
2022-11-29T11:19:38.271Z,4.19
2022-11-29T11:23:06.874Z,3.97
2022-11-29T11:26:12.923Z,4.19
2022-11-29T11:29:32.906Z,4.03
2022-11-29T11:32:58.451Z,4.18
2022-11-29T11:36:21.014Z,4.14
2022-11-29T11:39:30.941Z,4.18
2022-11-29T11:42:46.878Z,4.32
2022-11-29T11:45:54.301Z,4.32
2022-11-29T11:49:08.868Z,4.35
2022-11-29T11:52:21.250Z,4.32
2022-11-29T11:55:41.888Z,4.41
2022-11-29T11:59:03.988Z,4.43
2022-11-29T12:02:40.686Z,4.38
2022-11-29T12:06:00.817Z,4.34
2022-11-29T12:09:45.864Z,4.43
2022-11-29T12:13:01.926Z,4.29
2022-11-29T12:16:19.867Z,4.58
2022-11-29T12:19:43.114Z,5.27
2022-11-29T12:23:15.978Z,6.59
2022-11-29T12:27:00.008Z,7.06
2022-11-29T12:29:59.149Z,6.12
2022-11-29T12:33:33.843Z,6.57
2022-11-29T12:37:03.831Z,7.96
2022-11-29T12:40:23.780Z,7.30
2022-11-29T12:43:56.108Z,7.79
2022-11-29T12:47:38.405Z,9.08
2022-11-29T12:51:10.276Z,8.82
2022-11-29T12:54:51.847Z,9.09
2022-11-29T12:58:20.867Z,9.80
2022-11-29T13:01:42.599Z,8.09
2022-11-29T13:05:19.895Z,7.42
2022-11-29T13:08:54.931Z,7.98
2022-11-29T13:12:05.603Z,7.09
2022-11-29T13:15:28.875Z,6.52
2022-11-29T13:18:53.490Z,6.70
2022-11-29T13:22:29.945Z,6.46
2022-11-29T13:25:45.954Z,7.37
2022-11-29T13:29:04.946Z,6.65
2022-11-29T13:32:38.959Z,7.13
2022-11-29T13:36:04.916Z,6.76
2022-11-29T13:39:50.217Z,6.67
2022-11-29T13:43:31.989Z,7.05
2022-11-29T13:47:08.911Z,7.74
2022-11-29T13:50:37.510Z,9.18
2022-11-29T13:53:57.273Z,9.98
2022-11-29T13:57:06.510Z,10.18
2022-11-29T14:00:44.511Z,8.65
2022-11-29T14:04:13.898Z,6.87
2022-11-29T14:07:31.956Z,6.38
2022-11-29T14:10:56.863Z,5.79
2022-11-29T14:14:46.435Z,5.84
2022-11-29T14:17:58.872Z,5.70
2022-11-29T14:21:18.817Z,5.27
2022-11-29T14:24:48.126Z,4.94
2022-11-29T14:28:02.273Z,4.74
2022-11-29T14:31:20.214Z,4.58
2022-11-29T14:34:34.087Z,4.43
2022-11-29T14:38:21.290Z,4.46
2022-11-29T14:42:15.887Z,4.32
2022-11-29T14:45:24.751Z,5.95
2022-11-29T14:48:40.938Z,7.05
2022-11-29T14:52:22.933Z,8.48
2022-11-29T14:55:35.757Z,7.82
2022-11-29T14:58:43.939Z,8.53
2022-11-29T15:01:53.794Z,8.11
2022-11-29T15:05:03.994Z,8.91
2022-11-29T15:08:48.940Z,9.27
2022-11-29T15:11:57.930Z,8.37
2022-11-29T15:15:29.954Z,8.33
2022-11-29T15:18:51.742Z,8.48
2022-11-29T15:22:28.919Z,8.21
2022-11-29T15:25:53.920Z,8.32
2022-11-29T15:29:21.906Z,8.40
2022-11-29T15:32:29.180Z,8.85
2022-11-29T15:35:44.970Z,7.80
2022-11-29T15:38:57.131Z,7.44
2022-11-29T15:42:21.954Z,7.15
2022-11-29T15:45:34.476Z,6.72
2022-11-29T15:48:49.031Z,6.27
2022-11-29T15:52:03.888Z,7.59
2022-11-29T15:55:20.997Z,7.82
2022-11-29T15:58:26.287Z,7.40
2022-11-29T16:01:41.926Z,7.11
2022-11-29T16:04:47.068Z,6.86
2022-11-29T16:08:11.038Z,6.78
2022-11-29T16:11:29.959Z,7.30
2022-11-29T16:14:49.783Z,7.60
2022-11-29T16:17:58.979Z,7.28
2022-11-29T16:21:32.900Z,6.35
2022-11-29T16:25:03.042Z,6.46
2022-11-29T16:28:11.925Z,6.50
2022-11-29T16:31:23.702Z,7.11
2022-11-29T16:34:35.954Z,7.71
2022-11-29T16:37:46.487Z,7.57
2022-11-29T16:41:10.295Z,7.47
2022-11-29T16:45:05.052Z,7.47
2022-11-29T16:48:34.979Z,6.01
2022-11-29T16:51:46.145Z,5.25
2022-11-29T16:54:56.021Z,4.86
2022-11-29T16:58:04.618Z,4.71
2022-11-29T17:01:29.981Z,4.65
2022-11-29T17:04:38.740Z,4.55
2022-11-29T17:07:48.079Z,4.42
2022-11-29T17:11:06.201Z,4.42
2022-11-29T17:14:08.474Z,4.40
2022-11-29T17:17:25.079Z,4.46
2022-11-29T17:20:27.205Z,4.48
2022-11-29T17:23:48.970Z,4.49
2022-11-29T17:26:51.081Z,4.42
2022-11-29T17:30:06.163Z,4.43
2022-11-29T17:33:08.038Z,4.48
2022-11-29T17:36:25.970Z,4.51
2022-11-29T17:39:27.766Z,4.51
2022-11-29T17:42:43.074Z,4.51
2022-11-29T17:45:58.070Z,4.54
2022-11-29T17:49:07.998Z,4.51
2022-11-29T17:52:16.634Z,4.46
2022-11-29T17:55:31.111Z,4.55
2022-11-29T17:58:39.981Z,4.48
2022-11-29T18:01:48.874Z,4.45
2022-11-29T18:04:57.098Z,4.49
2022-11-29T18:08:12.141Z,4.47
2022-11-29T18:11:17.233Z,4.57
2022-11-29T18:14:32.083Z,4.58
2022-11-29T18:17:33.899Z,4.46
2022-11-29T18:20:49.003Z,4.49
2022-11-29T18:23:59.468Z,4.58
2022-11-29T18:27:14.069Z,4.62
2022-11-29T18:30:16.213Z,4.65
2022-11-29T18:33:31.039Z,4.61
2022-11-29T18:36:43.982Z,4.71
2022-11-29T18:39:59.022Z,4.71
2022-11-29T18:43:15.015Z,4.73
2022-11-29T18:46:26.122Z,4.73
2022-11-29T18:49:34.612Z,4.71
2022-11-29T18:52:56.000Z,4.69
2022-11-29T18:56:00.834Z,4.74
2022-11-29T18:59:18.983Z,4.75
2022-11-29T19:02:29.098Z,4.56
2022-11-29T19:05:39.014Z,4.62
2022-11-29T19:08:48.158Z,4.65
2022-11-29T19:11:56.713Z,4.65
2022-11-29T19:15:05.994Z,4.63
2022-11-29T19:18:17.771Z,4.69
2022-11-29T19:21:35.090Z,4.67
2022-11-29T19:24:49.991Z,4.70
2022-11-29T19:27:51.905Z,4.73
2022-11-29T19:31:07.099Z,4.77
2022-11-29T19:34:09.129Z,4.75
2022-11-29T19:37:24.002Z,4.76
2022-11-29T19:40:33.031Z,4.73
2022-11-29T19:43:49.203Z,4.74
2022-11-29T19:46:51.099Z,4.83
2022-11-29T19:50:06.047Z,4.77
2022-11-29T19:53:07.985Z,4.67
2022-11-29T19:56:24.034Z,4.75
2022-11-29T19:59:39.048Z,4.76
2022-11-29T20:02:55.046Z,4.80
2022-11-29T20:05:56.939Z,4.70
2022-11-29T20:09:13.063Z,4.74
2022-11-29T20:12:15.529Z,4.72
2022-11-29T20:15:30.037Z,4.72
2022-11-29T20:18:33.190Z,4.74
2022-11-29T20:21:52.151Z,4.72
2022-11-29T20:25:07.006Z,4.76
2022-11-29T20:28:15.630Z,4.75
2022-11-29T20:31:26.150Z,4.80
2022-11-29T20:34:34.923Z,4.73
2022-11-29T20:38:12.033Z,4.72
2022-11-29T20:41:45.002Z,4.77
2022-11-29T20:44:54.645Z,4.78
2022-11-29T20:48:17.019Z,4.80
2022-11-29T20:51:33.289Z,4.81
2022-11-29T20:54:48.085Z,4.86
2022-11-29T20:57:49.979Z,4.78
2022-11-29T21:01:06.032Z,4.79
2022-11-29T21:04:15.865Z,4.82
2022-11-29T21:07:34.027Z,4.81
2022-11-29T21:10:36.641Z,4.85
2022-11-29T21:13:51.051Z,4.86
2022-11-29T21:16:53.239Z,4.95
2022-11-29T21:20:09.065Z,4.96
2022-11-29T21:23:49.131Z,4.94
2022-11-29T21:27:04.081Z,4.81
2022-11-29T21:30:26.081Z,4.90
2022-11-29T21:33:34.735Z,4.96
2022-11-29T21:36:45.038Z,4.95
2022-11-29T21:40:01.051Z,4.93
2022-11-29T21:43:09.699Z,4.90
2022-11-29T21:46:19.108Z,5.01
2022-11-29T21:49:36.123Z,5.03
2022-11-29T21:52:44.753Z,5.07
2022-11-29T21:56:04.092Z,5.01
2022-11-29T21:59:05.941Z,5.04
2022-11-29T22:02:21.165Z,4.96
2022-11-29T22:05:30.062Z,5.09
2022-11-29T22:08:48.047Z,5.05
2022-11-29T22:11:56.742Z,5.02
2022-11-29T22:15:12.048Z,5.02
2022-11-29T22:18:13.974Z,4.97
2022-11-29T22:21:30.077Z,5.03
2022-11-29T22:24:46.482Z,5.12
2022-11-29T22:27:54.673Z,5.15
2022-11-29T22:31:16.978Z,5.14
2022-11-29T22:34:27.126Z,5.15
2022-11-29T22:37:36.143Z,5.15
2022-11-29T22:40:44.682Z,5.15
2022-11-29T22:43:53.085Z,5.18
2022-11-29T22:47:01.751Z,5.21
2022-11-29T22:50:17.129Z,5.19
2022-11-29T22:53:25.815Z,5.13
2022-11-29T22:56:37.122Z,5.20
2022-11-29T22:59:45.776Z,5.23
2022-11-29T23:02:54.065Z,5.18
2022-11-29T23:06:07.659Z,5.19
2022-11-29T23:09:26.054Z,5.21
2022-11-29T23:12:28.253Z,5.30
2022-11-29T23:15:43.070Z,5.24
2022-11-29T23:18:59.054Z,5.17
2022-11-29T23:22:14.112Z,5.23
2022-11-29T23:25:22.760Z,5.17
2022-11-29T23:28:31.118Z,5.26
2022-11-29T23:31:40.381Z,5.21
2022-11-29T23:34:49.239Z,5.22
2022-11-29T23:37:57.575Z,5.30
2022-11-29T23:41:06.114Z,5.22
2022-11-29T23:44:21.115Z,5.24
2022-11-29T23:47:22.983Z,5.27
2022-11-29T23:50:38.267Z,5.30
2022-11-29T23:53:40.709Z,5.27
2022-11-29T23:56:55.167Z,5.27
